createdAt,value
2022-08-19T00:02:39.830Z,25.05
2022-08-19T00:13:20.034Z,25.07
2022-08-19T00:23:49.144Z,25.12
2022-08-19T00:34:18.979Z,25.12
2022-08-19T00:44:48.591Z,25.06
2022-08-19T00:55:21.548Z,24.90
2022-08-19T01:05:52.767Z,24.75
2022-08-19T01:16:25.085Z,24.66
2022-08-19T01:26:54.426Z,24.61
2022-08-19T01:37:27.224Z,24.48
2022-08-19T01:48:01.784Z,24.29
2022-08-19T01:58:34.951Z,24.15
2022-08-19T02:09:03.810Z,23.98
2022-08-19T02:19:33.847Z,23.78
2022-08-19T02:30:03.123Z,23.64
2022-08-19T02:40:35.237Z,23.59
2022-08-19T02:51:04.211Z,23.68
2022-08-19T03:01:34.838Z,23.63
2022-08-19T03:12:05.055Z,23.62
2022-08-19T03:22:34.239Z,23.52
2022-08-19T03:33:03.220Z,23.47
2022-08-19T03:43:34.790Z,23.51
2022-08-19T03:54:06.342Z,23.66
2022-08-19T04:04:35.925Z,23.72
2022-08-19T04:15:06.088Z,23.72
2022-08-19T04:25:40.119Z,23.68
2022-08-19T04:36:11.319Z,23.80
2022-08-19T04:46:51.176Z,23.85
2022-08-19T04:57:20.745Z,23.89
2022-08-19T05:07:49.783Z,24.08
2022-08-19T05:18:35.932Z,24.21
2022-08-19T05:29:03.090Z,24.27
2022-08-19T05:39:34.774Z,24.30
2022-08-19T05:50:05.028Z,24.33
2022-08-19T06:00:34.291Z,24.51
2022-08-19T06:11:17.097Z,24.91
2022-08-19T06:21:47.968Z,25.18
2022-08-19T06:32:20.024Z,25.32
2022-08-19T06:42:54.089Z,25.58
2022-08-19T06:53:24.259Z,25.93
2022-08-19T07:03:53.237Z,26.32
2022-08-19T07:14:25.882Z,26.73
2022-08-19T07:24:55.041Z,26.86
2022-08-19T07:35:24.992Z,26.87
2022-08-19T07:45:54.235Z,26.87
2022-08-19T07:56:24.807Z,26.89
2022-08-19T08:07:11.159Z,27.06
2022-08-19T08:17:48.636Z,27.24
2022-08-19T08:28:19.272Z,27.35
2022-08-19T08:38:49.499Z,27.46
2022-08-19T08:49:29.647Z,27.58
2022-08-19T08:59:59.848Z,27.83
2022-08-19T09:10:35.449Z,28.19
2022-08-19T09:21:13.658Z,28.46
2022-08-19T09:31:42.919Z,28.65
2022-08-19T09:42:16.396Z,28.70
2022-08-19T09:52:54.193Z,28.82
2022-08-19T10:03:29.858Z,28.83
2022-08-19T10:13:59.327Z,28.88
2022-08-19T10:24:29.286Z,28.97
2022-08-19T10:34:58.992Z,29.14
2022-08-19T10:45:28.541Z,29.40
2022-08-19T10:56:15.117Z,29.78
2022-08-19T11:06:46.743Z,30.11
2022-08-19T11:17:16.874Z,30.44
2022-08-19T11:27:47.579Z,30.65
2022-08-19T11:38:16.571Z,30.60
2022-08-19T11:48:46.029Z,30.59
2022-08-19T11:59:16.369Z,30.66
2022-08-19T12:09:45.955Z,30.71
2022-08-19T12:20:18.570Z,30.78
2022-08-19T12:30:47.671Z,30.86
2022-08-19T12:41:19.693Z,30.94
2022-08-19T12:51:48.622Z,30.99
2022-08-19T13:02:17.556Z,31.07
2022-08-19T13:12:47.233Z,31.19
2022-08-19T13:23:16.045Z,31.27
2022-08-19T13:33:46.624Z,31.39
2022-08-19T13:44:15.543Z,31.43
2022-08-19T13:54:45.161Z,31.50
2022-08-19T14:05:16.257Z,31.58
2022-08-19T14:15:45.582Z,31.57
2022-08-19T14:26:17.587Z,31.49
2022-08-19T14:36:46.460Z,31.45
2022-08-19T14:47:18.722Z,31.45
2022-08-19T14:57:49.058Z,31.53
2022-08-19T15:08:17.914Z,31.58
2022-08-19T15:18:48.492Z,31.57
2022-08-19T15:29:17.716Z,31.47
2022-08-19T15:39:47.387Z,31.34
2022-08-19T15:50:19.413Z,31.23
2022-08-19T16:01:05.717Z,31.12
2022-08-19T16:11:45.588Z,31.01
2022-08-19T16:22:15.155Z,30.90
2022-08-19T16:32:47.731Z,30.80
2022-08-19T16:43:16.770Z,30.66
2022-08-19T16:53:47.141Z,30.56
2022-08-19T17:04:16.132Z,30.42
2022-08-19T17:14:46.425Z,30.21
2022-08-19T17:25:16.248Z,28.67
2022-08-19T17:35:46.202Z,27.61
2022-08-19T17:56:21.996Z,26.33
2022-08-19T18:06:53.723Z,25.55
2022-08-19T18:17:26.320Z,24.72
2022-08-19T18:27:57.488Z,23.88
2022-08-19T18:38:43.492Z,23.77
2022-08-19T18:49:13.163Z,24.08
2022-08-19T18:59:43.543Z,24.32
2022-08-19T19:10:12.730Z,24.32
2022-08-19T19:20:42.068Z,24.39
2022-08-19T19:31:13.710Z,24.41
2022-08-19T19:41:42.667Z,24.45
2022-08-19T19:52:13.941Z,24.29
2022-08-19T20:02:49.148Z,24.20
2022-08-19T20:13:17.326Z,24.36
2022-08-19T20:24:05.779Z,24.10
2022-08-19T20:34:35.458Z,24.13
2022-08-19T20:45:05.778Z,24.20
2022-08-19T20:55:38.862Z,24.03
2022-08-19T21:06:08.165Z,23.73
2022-08-19T21:16:37.153Z,23.29
2022-08-19T21:27:06.638Z,22.86
2022-08-19T21:37:35.929Z,22.70
2022-08-19T21:48:05.373Z,22.75
2022-08-19T21:58:34.981Z,23.00
2022-08-19T22:09:03.816Z,23.32
2022-08-19T22:19:33.633Z,23.52
2022-08-19T22:30:04.023Z,23.66
2022-08-19T22:40:34.743Z,23.73
2022-08-19T22:51:21.143Z,23.75
2022-08-19T23:01:48.224Z,23.72
2022-08-19T23:12:17.724Z,23.30
2022-08-19T23:22:48.895Z,23.12
2022-08-19T23:33:25.077Z,23.32
2022-08-19T23:43:54.799Z,23.55
2022-08-19T23:54:34.358Z,23.94
